Adna, Washington
Current Conditions -  °F | °C
As of 8:35 AM on Friday 21 Nov 2014 (Local Time) from KCLS Reporting Station
Overcast Overcast  
Wind Chill: 10°   Ceiling: 5000
Heat Index: 10°   Visibility: 10mi
Dew Point:   Wind: 9mph
Humidity: 82%   Direction: 170°S
Pressure: 29.74"   Gusts: NA
Location:  46.63°N, 123.06°W
Report Text: KCLS 211635Z AUTO 17008KT 10SM SCT043 BKN050 OVC060 10/07 A2974 RMK AO2
Loading
Personal Weather Stations






























Interactive Weather Map New forecast layout! Learn more

10-Day Weather Forecast

Advertisements
Track Severe Weather on mobile